Terminal Aerodrome Forecast
Issued by NWS

Home | Current Version | Previous Version | Text Only | Print | Product List | Glossary On
Versions: 1 2 3 4 5 6 7 8 9 10 11 12 13 14 15 16 17 18 19 20 21 22 23 24 25
718
FTUS43 KLSX 291734
TAFCPS
TAF
KCPS 291734Z 2918/3018 11011G21KT P6SM VCSH BKN015 OVC035
     FM300300 11011G18KT P6SM VCSH BKN035
      TEMPO 3003/3006 2SM +TSRA OVC010CB
     FM300600 12012G19KT 4SM -SHRA OVC015
     FM301200 14007KT 5SM -SHRA OVC008
     FM301400 16008KT P6SM VCTS BKN035CB=

USA.gov is the U.S. government's official web portal to all federal, state and local government web resources and services.